Time;durP1;ratioP1;P1;durP2;ratioP2;P2;SDS_P1;SDS_P2;PMS_P1;PMS_P2;Temp;Humidity;BMP_temperature;BMP_pressure;BME280_temperature;BME280_humidity;BME280_pressure;Samples;Min_cycle;Max_cycle;Signal;HPM_P1;HPM_P2
2022/04/05 00:00:17;;;;;;;11.98;2.83;;;8.10;70.40;;;;;;2345574;57;21105;-73
2022/04/05 00:02:45;;;;;;;9.73;2.17;;;8.10;70.20;;;;;;2345714;57;21055;-73
2022/04/05 00:05:12;;;;;;;15.90;3.60;;;8.10;70.20;;;;;;2345461;57;21090;-73
2022/04/05 00:07:39;;;;;;;16.50;4.15;;;8.10;70.20;;;;;;2345695;57;21066;-73
2022/04/05 00:10:07;;;;;;;15.38;2.35;;;8.00;70.50;;;;;;2592598;53;22300;-73
2022/04/05 00:12:34;;;;;;;11.65;2.37;;;8.00;70.90;;;;;;2345119;57;21039;-73
2022/04/05 00:15:05;;;;;;;9.60;2.90;;;8.00;71.50;;;;;;2345808;57;21051;-73
2022/04/05 00:17:32;;;;;;;11.25;2.50;;;8.00;71.40;;;;;;2345680;57;21220;-73
2022/04/05 00:20:00;;;;;;;8.90;2.67;;;7.90;71.40;;;;;;2345712;57;21624;-73
2022/04/05 00:22:27;;;;;;;16.55;2.92;;;7.90;71.50;;;;;;2593076;53;21115;-73
2022/04/05 00:24:54;;;;;;;14.87;2.25;;;7.90;71.70;;;;;;2345818;57;21135;-73
2022/04/05 00:27:21;;;;;;;10.60;2.85;;;7.90;72.10;;;;;;2345816;57;21095;-73
2022/04/05 00:29:49;;;;;;;10.45;2.50;;;7.80;72.30;;;;;;2345582;57;21573;-73
2022/04/05 00:32:16;;;;;;;10.90;2.33;;;7.80;72.10;;;;;;2345936;57;21489;-73
2022/04/05 00:34:43;;;;;;;12.00;2.33;;;7.90;71.90;;;;;;2345755;57;21087;-75
2022/04/05 00:37:10;;;;;;;14.10;3.40;;;7.90;72.10;;;;;;2345429;57;21051;-73
2022/04/05 00:39:38;;;;;;;14.13;2.90;;;7.90;71.90;;;;;;2592885;53;21111;-73
2022/04/05 00:42:09;;;;;;;15.20;3.10;;;7.90;72.00;;;;;;2345813;57;21036;-73
2022/04/05 00:44:37;;;;;;;19.37;2.78;;;7.90;72.20;;;;;;2346116;57;21407;-73
2022/04/05 00:47:16;;;;;;;14.70;2.50;;;7.90;72.00;;;;;;2591684;53;21036;-73
2022/04/05 00:49:44;;;;;;;22.00;3.78;;;7.90;71.90;;;;;;2345887;57;21054;-73
2022/04/05 00:52:12;;;;;;;14.25;2.55;;;8.00;72.10;;;;;;2345971;57;21142;-73
2022/04/05 00:54:41;;;;;;;21.37;4.70;;;8.00;72.20;;;;;;2593457;53;21114;-73
2022/04/05 00:57:11;;;;;;;12.05;3.20;;;8.00;72.40;;;;;;2345634;57;21059;-73
2022/04/05 00:59:41;;;;;;;20.60;3.33;;;8.00;72.60;;;;;;2346194;57;21062;-73
2022/04/05 01:02:11;;;;;;;15.65;3.78;;;8.10;72.80;;;;;;2346044;57;21165;-73
2022/04/05 01:07:18;;;;;;;20.12;2.78;;;8.10;73.20;;;;;;2354865;57;22632;-73
2022/04/05 01:09:46;;;;;;;17.45;3.15;;;8.10;73.00;;;;;;2347857;57;21061;-73
2022/04/05 01:12:14;;;;;;;18.83;2.92;;;8.00;73.00;;;;;;2347653;57;21073;-73
2022/04/05 01:14:42;;;;;;;15.27;2.95;;;8.10;73.30;;;;;;2347777;57;21133;-73
2022/04/05 01:17:09;;;;;;;20.75;3.70;;;8.00;73.10;;;;;;2320372;58;21139;-73
2022/04/05 01:19:36;;;;;;;22.73;4.07;;;8.10;73.20;;;;;;2320655;58;21044;-73
2022/04/05 01:22:04;;;;;;;23.70;3.25;;;8.00;73.20;;;;;;2318184;58;21131;-73
2022/04/05 01:24:33;;;;;;;18.80;3.92;;;8.00;73.50;;;;;;2320707;58;21064;-73
2022/04/05 01:27:04;;;;;;;16.62;2.87;;;8.10;73.40;;;;;;2561322;54;21115;-73
2022/04/05 01:29:32;;;;;;;14.70;2.50;;;8.10;73.30;;;;;;2320729;58;21131;-73
2022/04/05 01:32:03;;;;;;;24.20;4.43;;;8.10;73.10;;;;;;2320414;58;21531;-73
2022/04/05 01:34:32;;;;;;;23.65;3.67;;;8.10;72.90;;;;;;2320895;58;21047;-73
2022/04/05 01:37:02;;;;;;;25.52;3.87;;;8.10;72.50;;;;;;2319428;58;21114;-73
2022/04/05 01:39:30;;;;;;;20.62;4.28;;;8.10;72.20;;;;;;2318667;58;21211;-73
2022/04/05 01:41:59;;;;;;;17.95;3.08;;;8.10;72.50;;;;;;2320503;58;21047;-73
2022/04/05 01:44:28;;;;;;;18.48;3.17;;;8.10;73.60;;;;;;2320563;58;21139;-73
2022/04/05 01:46:56;;;;;;;21.58;3.10;;;8.10;72.90;;;;;;2320283;58;21663;-73
2022/04/05 01:49:24;;;;;;;15.95;2.80;;;8.10;72.70;;;;;;2320922;58;21060;-73
2022/04/05 01:51:51;;;;;;;14.18;2.72;;;8.10;72.50;;;;;;2320785;58;21079;-73
2022/04/05 01:54:39;;;;;;;9.75;2.20;;;8.00;72.70;;;;;;2320787;58;21622;-73
2022/04/05 01:57:06;;;;;;;12.90;3.37;;;8.00;72.80;;;;;;2435242;57;21143;-73
2022/04/05 01:59:35;;;;;;;11.25;2.20;;;8.00;72.50;;;;;;2437847;57;21154;-76
2022/04/05 02:02:05;;;;;;;14.75;2.60;;;8.00;71.70;;;;;;2218455;61;21251;-76
2022/04/05 02:04:33;;;;;;;11.48;2.55;;;8.00;71.60;;;;;;2218408;61;21644;-75
2022/04/05 02:07:01;;;;;;;17.25;2.67;;;8.10;71.50;;;;;;2217561;61;21087;-76
2022/04/05 02:09:28;;;;;;;15.23;2.50;;;8.00;71.20;;;;;;2218519;61;21214;-76
2022/04/05 02:11:55;;;;;;;15.98;2.50;;;8.00;71.40;;;;;;2438343;56;21075;-75
2022/04/05 02:14:23;;;;;;;18.42;2.95;;;8.00;71.60;;;;;;2216003;61;21114;-74
2022/04/05 02:16:50;;;;;;;17.83;2.58;;;7.90;71.40;;;;;;2217301;61;21276;-75
2022/04/05 02:19:17;;;;;;;15.77;3.22;;;7.90;71.80;;;;;;2436667;57;21658;-75
2022/04/05 02:21:44;;;;;;;14.90;2.97;;;7.90;71.80;;;;;;2216600;61;21150;-75
2022/04/05 02:24:12;;;;;;;14.82;2.12;;;7.80;72.50;;;;;;2436701;57;21225;-74
2022/04/05 02:26:39;;;;;;;10.77;2.40;;;7.90;71.30;;;;;;2216910;61;21079;-74
2022/04/05 02:29:06;;;;;;;11.20;2.72;;;7.90;71.40;;;;;;2217710;61;21083;-75
2022/04/05 02:31:34;;;;;;;17.37;3.10;;;7.80;71.20;;;;;;2217319;61;21150;-75
2022/04/05 02:34:01;;;;;;;11.88;1.58;;;7.80;71.20;;;;;;2217141;61;21569;-75
2022/04/05 02:36:28;;;;;;;10.57;2.87;;;7.80;71.00;;;;;;2216590;61;21138;-74
2022/04/05 02:38:55;;;;;;;9.02;2.28;;;7.80;70.80;;;;;;2435455;57;21099;-74
2022/04/05 02:41:23;;;;;;;11.10;2.08;;;7.90;70.90;;;;;;2217049;61;21154;-75
2022/04/05 02:43:50;;;;;;;6.03;2.10;;;7.80;70.20;;;;;;2217403;61;21589;-74
2022/04/05 02:46:17;;;;;;;9.38;1.67;;;7.80;70.00;;;;;;2216909;61;21123;-75
2022/04/05 02:48:46;;;;;;;8.43;2.00;;;7.80;69.90;;;;;;2217319;61;21094;-74
2022/04/05 02:51:14;;;;;;;14.18;2.25;;;7.80;69.50;;;;;;2216976;61;21098;-75
2022/04/05 02:56:18;;;;;;;6.50;1.62;;;7.80;69.20;;;;;;2373403;56;22674;-73
2022/04/05 02:58:48;;;;;;;6.53;1.90;;;7.80;68.70;;;;;;2628792;52;21043;-75
2022/04/05 03:01:16;;;;;;;12.50;1.75;;;7.80;68.80;;;;;;2375265;56;21055;-76
2022/04/05 03:03:43;;;;;;;17.08;2.47;;;7.70;68.90;;;;;;2628609;52;21181;-75
2022/04/05 03:06:10;;;;;;;4.35;1.73;;;7.70;68.50;;;;;;2627993;52;21042;-76
2022/04/05 03:08:38;;;;;;;8.10;2.10;;;7.70;68.60;;;;;;2374244;56;21054;-76
2022/04/05 03:11:06;;;;;;;8.35;1.87;;;7.70;68.80;;;;;;2374397;56;21663;-76
2022/04/05 03:13:33;;;;;;;17.50;2.00;;;7.70;68.80;;;;;;2374448;56;21118;-74
2022/04/05 03:16:01;;;;;;;8.30;1.58;;;7.60;68.60;;;;;;2374444;56;21051;-76
2022/04/05 03:18:28;;;;;;;6.65;2.17;;;7.60;68.90;;;;;;2375225;56;22081;-75
2022/04/05 03:20:55;;;;;;;11.60;2.47;;;7.50;69.10;;;;;;2374888;56;21031;-76
2022/04/05 03:23:23;;;;;;;13.65;2.72;;;7.50;69.20;;;;;;2375058;56;21097;-76
2022/04/05 03:25:51;;;;;;;8.05;1.87;;;7.50;69.20;;;;;;2628149;52;21051;-75
2022/04/05 03:28:20;;;;;;;6.50;1.67;;;7.50;69.40;;;;;;2627619;52;21617;-76
2022/04/05 03:30:48;;;;;;;6.43;1.70;;;7.50;69.50;;;;;;2373892;56;21035;-76
2022/04/05 03:33:16;;;;;;;6.43;1.55;;;7.40;69.40;;;;;;2375313;56;21114;-76
2022/04/05 03:35:44;;;;;;;33.72;3.47;;;7.30;69.80;;;;;;2374699;56;21070;-75
2022/04/05 03:38:11;;;;;;;12.77;1.90;;;7.30;69.70;;;;;;2375380;56;21118;-75
2022/04/05 03:40:39;;;;;;;9.88;1.75;;;7.30;69.50;;;;;;2374310;56;21114;-74
2022/04/05 03:43:11;;;;;;;16.37;2.28;;;7.30;69.70;;;;;;2375247;56;21537;-75
2022/04/05 03:45:38;;;;;;;13.40;1.60;;;7.30;69.80;;;;;;2373354;56;21059;-73
2022/04/05 03:48:06;;;;;;;10.30;1.98;;;7.20;69.90;;;;;;2373617;56;21035;-74
2022/04/05 03:50:34;;;;;;;9.20;1.70;;;7.20;70.00;;;;;;2375247;56;21136;-75
2022/04/05 03:53:01;;;;;;;10.95;2.65;;;7.10;70.20;;;;;;2375316;56;21545;-74
2022/04/05 03:55:28;;;;;;;11.88;1.98;;;7.10;70.20;;;;;;2374737;56;21043;-75
2022/04/05 03:57:56;;;;;;;11.73;2.35;;;7.10;70.00;;;;;;2628803;52;21050;-74
2022/04/05 04:00:23;;;;;;;11.50;2.25;;;7.10;69.80;;;;;;2373457;56;21588;-74
2022/04/05 04:02:50;;;;;;;10.20;1.70;;;7.00;69.90;;;;;;2372549;56;21058;-74
2022/04/05 04:05:20;;;;;;;6.82;2.30;;;7.00;69.90;;;;;;2374050;56;21110;-74
2022/04/05 04:07:48;;;;;;;12.00;2.35;;;7.00;70.10;;;;;;2373983;56;21601;-74
2022/04/05 04:10:16;;;;;;;11.27;2.65;;;7.00;69.90;;;;;;2373067;56;21125;-75
2022/04/05 04:12:43;;;;;;;9.98;1.80;;;6.90;69.70;;;;;;2627486;52;21588;-75
2022/04/05 04:15:12;;;;;;;7.35;1.77;;;6.90;69.80;;;;;;2373777;56;21050;-74
2022/04/05 04:17:39;;;;;;;22.83;4.12;;;7.00;69.80;;;;;;2373284;56;21051;-77
2022/04/05 04:20:08;;;;;;;7.62;1.48;;;6.90;69.50;;;;;;2373968;56;21702;-75
2022/04/05 04:22:36;;;;;;;7.07;2.12;;;6.90;69.40;;;;;;2373925;56;21071;-75
2022/04/05 04:25:03;;;;;;;10.65;2.22;;;6.90;69.40;;;;;;2373412;56;21082;-74
2022/04/05 04:27:31;;;;;;;14.65;2.20;;;7.00;69.40;;;;;;2372483;56;21118;-75
2022/04/05 04:29:58;;;;;;;13.38;1.80;;;6.90;69.50;;;;;;2625836;52;21022;-74
2022/04/05 04:32:25;;;;;;;13.98;2.00;;;6.90;69.40;;;;;;2373102;56;21047;-74
2022/04/05 04:34:52;;;;;;;12.52;2.05;;;6.90;69.50;;;;;;2372722;56;21605;-74
2022/04/05 04:37:20;;;;;;;13.43;2.33;;;6.90;69.50;;;;;;2373258;56;21533;-74
2022/04/05 04:39:47;;;;;;;15.15;2.55;;;6.90;69.40;;;;;;2373813;56;21661;-74
2022/04/05 04:42:15;;;;;;;15.23;2.35;;;6.90;69.60;;;;;;2373823;56;21035;-74
2022/04/05 04:44:42;;;;;;;11.80;2.67;;;6.90;69.50;;;;;;2373369;56;21298;-74
2022/04/05 04:47:09;;;;;;;11.57;2.28;;;6.90;69.50;;;;;;2373744;56;21063;-74
2022/04/05 04:49:36;;;;;;;16.23;2.22;;;6.90;69.60;;;;;;2373460;56;21170;-74
2022/04/05 04:52:04;;;;;;;13.00;2.22;;;6.90;69.50;;;;;;2373672;56;21070;-74
2022/04/05 04:54:32;;;;;;;9.95;2.25;;;6.80;69.50;;;;;;2373984;56;21039;-74
2022/04/05 04:56:59;;;;;;;9.15;1.70;;;6.80;69.70;;;;;;2626829;52;21522;-74
2022/04/05 04:59:26;;;;;;;18.40;2.35;;;6.80;69.60;;;;;;2374125;56;21107;-74
2022/04/05 05:01:54;;;;;;;4.78;2.10;;;6.80;69.90;;;;;;2373710;56;21047;-74
2022/04/05 05:04:21;;;;;;;11.15;1.70;;;6.80;69.90;;;;;;2627559;52;21113;-74
2022/04/05 05:06:48;;;;;;;10.13;2.20;;;6.80;69.60;;;;;;2371614;56;21063;-74
2022/04/05 05:09:16;;;;;;;13.20;2.08;;;6.80;69.60;;;;;;2373011;56;21603;-74
2022/04/05 05:11:44;;;;;;;11.10;1.95;;;6.80;69.60;;;;;;2627554;52;21157;-74
2022/04/05 05:14:11;;;;;;;9.90;2.25;;;6.80;69.80;;;;;;2373567;56;21054;-75
2022/04/05 05:16:38;;;;;;;7.30;1.90;;;6.80;69.60;;;;;;2373406;56;21117;-75
2022/04/05 05:19:05;;;;;;;8.82;1.80;;;6.80;69.70;;;;;;2627558;52;21173;-74
2022/04/05 05:21:33;;;;;;;15.70;2.55;;;6.80;69.70;;;;;;2627079;52;21087;-74
2022/04/05 05:24:00;;;;;;;7.65;2.05;;;6.80;69.60;;;;;;2370311;56;21644;-74
2022/04/05 05:26:27;;;;;;;12.10;2.17;;;6.80;69.60;;;;;;2372556;56;21521;-74
2022/04/05 05:28:55;;;;;;;15.55;2.55;;;6.90;69.40;;;;;;2373495;56;21557;-74
2022/04/05 05:31:22;;;;;;;9.23;2.67;;;6.90;69.50;;;;;;2373371;56;21118;-74
2022/04/05 05:33:49;;;;;;;14.55;2.83;;;6.90;69.50;;;;;;2373334;56;21035;-74
2022/04/05 05:36:16;;;;;;;8.60;1.98;;;6.90;69.60;;;;;;2626204;52;22131;-74
2022/04/05 05:38:44;;;;;;;9.98;2.33;;;6.90;69.60;;;;;;2373396;56;21536;-74
2022/04/05 05:41:11;;;;;;;10.25;1.90;;;6.90;69.50;;;;;;2372660;56;21127;-73
2022/04/05 05:43:40;;;;;;;13.93;2.00;;;7.00;69.30;;;;;;2373697;56;21030;-74
2022/04/05 05:48:44;;;;;;;9.00;1.87;;;7.00;69.60;;;;;;2355882;57;22117;-73
2022/04/05 05:51:11;;;;;;;15.18;2.45;;;7.00;69.60;;;;;;2347519;57;21041;-76
2022/04/05 05:53:39;;;;;;;14.85;2.50;;;7.00;69.50;;;;;;2347287;57;21124;-75
2022/04/05 05:56:06;;;;;;;12.02;2.17;;;7.00;69.50;;;;;;2613777;52;21125;-74
2022/04/05 05:58:34;;;;;;;8.25;1.92;;;7.00;69.70;;;;;;2375141;56;21039;-75
2022/04/05 06:01:01;;;;;;;11.25;2.03;;;7.00;69.80;;;;;;2375092;56;21054;-75
2022/04/05 06:03:29;;;;;;;7.30;2.10;;;7.00;69.80;;;;;;2374983;56;22181;-75
2022/04/05 06:05:56;;;;;;;14.25;2.90;;;7.10;70.00;;;;;;2374316;56;21055;-75
2022/04/05 06:08:23;;;;;;;18.85;2.28;;;7.00;70.00;;;;;;2628693;52;21629;-75
2022/04/05 06:10:51;;;;;;;9.90;1.75;;;7.00;70.10;;;;;;2375024;56;21082;-75
2022/04/05 06:13:18;;;;;;;13.02;2.62;;;7.10;70.20;;;;;;2375527;56;21130;-75
2022/04/05 06:15:45;;;;;;;10.27;2.30;;;7.10;69.90;;;;;;2374471;56;21051;-75
2022/04/05 06:18:12;;;;;;;14.30;2.65;;;7.10;69.90;;;;;;2374987;56;21165;-75
2022/04/05 06:20:40;;;;;;;9.57;1.87;;;7.10;70.10;;;;;;2374983;56;22075;-75
2022/04/05 06:23:07;;;;;;;10.90;1.70;;;7.10;70.00;;;;;;2628325;52;21121;-75
2022/04/05 06:25:37;;;;;;;15.13;2.30;;;7.20;69.70;;;;;;2374550;56;21114;-74
2022/04/05 06:28:07;;;;;;;16.00;2.78;;;7.20;69.40;;;;;;2375342;56;21557;-75
2022/04/05 06:30:36;;;;;;;11.23;2.12;;;7.20;69.40;;;;;;2375255;56;21058;-75
2022/04/05 06:33:08;;;;;;;10.45;2.60;;;7.20;69.30;;;;;;2375248;56;21201;-75
2022/04/05 06:35:36;;;;;;;9.02;2.40;;;7.20;69.40;;;;;;2374908;56;21118;-75
2022/04/05 06:38:03;;;;;;;6.05;2.10;;;7.20;69.50;;;;;;2628713;52;21031;-76
2022/04/05 06:40:31;;;;;;;8.55;1.65;;;7.20;69.60;;;;;;2373014;56;21118;-75
2022/04/05 06:42:59;;;;;;;9.88;1.98;;;7.30;69.60;;;;;;2375047;56;21193;-76
2022/04/05 06:45:26;;;;;;;9.10;1.92;;;7.30;69.70;;;;;;2374404;56;21055;-75
2022/04/05 06:47:53;;;;;;;13.07;2.83;;;7.30;69.80;;;;;;2375067;56;21103;-75
2022/04/05 06:50:24;;;;;;;15.55;3.60;;;7.30;69.80;;;;;;2375166;56;21111;-75
2022/04/05 06:52:53;;;;;;;8.25;1.77;;;7.40;69.70;;;;;;2375092;56;21051;-75
2022/04/05 06:55:20;;;;;;;6.62;1.62;;;7.40;69.90;;;;;;2374760;56;21180;-76
2022/04/05 06:57:47;;;;;;;6.70;1.70;;;7.50;69.20;;;;;;2375000;56;21075;-76
2022/04/05 07:00:18;;;;;;;10.40;2.62;;;7.60;68.80;;;;;;2373984;56;21146;-76
2022/04/05 07:02:45;;;;;;;6.35;2.37;;;7.60;69.20;;;;;;2374248;56;21039;-75
2022/04/05 07:05:13;;;;;;;9.68;2.62;;;7.60;69.30;;;;;;2373885;56;21051;-75
2022/04/05 07:07:41;;;;;;;6.45;1.58;;;7.70;69.30;;;;;;2627235;52;21039;-75
2022/04/05 07:10:10;;;;;;;10.13;2.40;;;7.70;69.10;;;;;;2374320;56;21110;-75
2022/04/05 07:12:38;;;;;;;7.15;2.28;;;7.80;68.90;;;;;;2626933;52;21593;-75
2022/04/05 07:15:09;;;;;;;8.73;2.25;;;7.90;68.60;;;;;;2373653;56;21102;-75
2022/04/05 07:17:36;;;;;;;7.97;2.47;;;8.00;68.30;;;;;;2374063;56;21581;-75
2022/04/05 07:20:07;;;;;;;6.30;1.73;;;8.00;68.20;;;;;;2374330;56;21687;-75
2022/04/05 07:22:34;;;;;;;11.07;1.98;;;8.00;68.60;;;;;;2373980;56;21035;-75
2022/04/05 07:25:02;;;;;;;10.65;1.92;;;8.10;68.30;;;;;;2374106;56;21059;-76
2022/04/05 07:27:29;;;;;;;4.72;1.95;;;8.10;67.90;;;;;;2626817;52;21631;-75
2022/04/05 07:29:56;;;;;;;11.35;2.47;;;8.20;67.90;;;;;;2373862;56;21111;-76
2022/04/05 07:32:23;;;;;;;26.45;4.78;;;8.30;67.70;;;;;;2374121;56;21019;-76
2022/04/05 07:34:51;;;;;;;17.87;2.60;;;8.30;67.80;;;;;;2373999;56;21134;-75
2022/04/05 07:37:18;;;;;;;9.90;1.90;;;8.30;67.40;;;;;;2373974;56;21573;-75
2022/04/05 07:39:45;;;;;;;10.23;2.28;;;8.30;67.20;;;;;;2373713;56;21586;-75
2022/04/05 07:42:13;;;;;;;10.68;1.85;;;8.40;67.30;;;;;;2373505;56;21118;-75
2022/04/05 07:44:40;;;;;;;11.23;2.08;;;8.50;67.10;;;;;;2374025;56;21585;-76
2022/04/05 07:47:07;;;;;;;9.73;1.50;;;8.50;67.10;;;;;;2625696;52;21110;-75
2022/04/05 07:49:35;;;;;;;10.45;1.73;;;8.60;66.60;;;;;;2627214;52;21043;-75
2022/04/05 07:52:02;;;;;;;12.73;2.08;;;8.60;66.30;;;;;;2627365;52;21027;-76
2022/04/05 07:54:29;;;;;;;8.40;1.60;;;8.70;65.80;;;;;;2374056;56;21070;-75
2022/04/05 07:56:58;;;;;;;7.20;2.22;;;8.70;65.80;;;;;;2498728;54;21519;-74
2022/04/05 07:59:25;;;;;;;9.73;2.12;;;8.80;65.60;;;;;;2300751;58;21157;-73
2022/04/05 08:01:52;;;;;;;5.32;1.50;;;8.80;66.30;;;;;;2300863;58;21556;-74
2022/04/05 08:04:19;;;;;;;8.68;1.87;;;8.80;65.30;;;;;;2302050;58;21046;-74
2022/04/05 08:06:46;;;;;;;8.75;2.33;;;8.90;65.00;;;;;;2299877;58;21419;-74
2022/04/05 08:09:14;;;;;;;6.80;1.87;;;8.90;64.50;;;;;;2300596;58;21047;-74
2022/04/05 08:11:41;;;;;;;8.07;1.92;;;8.90;64.80;;;;;;2300116;58;21372;-74
2022/04/05 08:14:08;;;;;;;7.82;1.75;;;9.00;65.10;;;;;;2537461;54;21106;-74
2022/04/05 08:16:36;;;;;;;10.75;2.35;;;9.00;65.10;;;;;;2300144;58;21042;-74
2022/04/05 08:19:04;;;;;;;12.13;1.87;;;9.10;65.30;;;;;;2300271;58;21565;-74
2022/04/05 08:21:31;;;;;;;8.88;1.40;;;9.20;64.60;;;;;;2300567;58;21094;-74
2022/04/05 08:23:58;;;;;;;6.22;1.37;;;9.30;64.40;;;;;;2300408;58;21054;-74
2022/04/05 08:26:26;;;;;;;8.88;1.85;;;9.30;64.00;;;;;;2299702;58;21110;-74
2022/04/05 08:28:55;;;;;;;7.87;1.62;;;9.30;63.30;;;;;;2300238;58;21068;-74
2022/04/05 08:31:22;;;;;;;12.63;2.30;;;9.40;63.10;;;;;;2300374;58;21059;-74
2022/04/05 08:33:50;;;;;;;11.57;1.80;;;9.40;62.90;;;;;;2300428;58;21062;-74
2022/04/05 08:36:17;;;;;;;4.85;1.50;;;9.40;62.50;;;;;;2300292;58;21118;-74
2022/04/05 08:38:45;;;;;;;4.78;1.37;;;9.40;62.50;;;;;;2300552;58;21051;-73
2022/04/05 08:41:13;;;;;;;6.12;1.62;;;9.50;62.10;;;;;;2300206;58;21050;-75
2022/04/05 08:43:43;;;;;;;6.93;1.73;;;9.50;60.90;;;;;;2300438;58;21138;-74
2022/04/05 08:46:11;;;;;;;8.35;2.12;;;9.50;60.30;;;;;;2299793;58;21189;-74
2022/04/05 08:48:38;;;;;;;9.32;1.35;;;9.50;59.40;;;;;;2300320;58;21066;-74
2022/04/05 08:51:06;;;;;;;9.30;2.35;;;9.50;59.10;;;;;;2300640;58;21608;-73
2022/04/05 08:53:34;;;;;;;6.32;1.50;;;9.50;59.40;;;;;;2300404;58;21575;-73
2022/04/05 08:56:01;;;;;;;8.32;1.65;;;9.50;59.50;;;;;;2300037;58;21651;-74
2022/04/05 08:58:29;;;;;;;9.30;1.60;;;9.50;60.00;;;;;;2300891;58;21157;-75
2022/04/05 09:00:56;;;;;;;7.37;1.67;;;9.50;59.80;;;;;;2300726;58;21052;-74
2022/04/05 09:03:23;;;;;;;4.05;1.83;;;9.60;59.90;;;;;;2537775;54;21655;-75
2022/04/05 09:05:50;;;;;;;8.18;1.75;;;9.60;60.30;;;;;;2298301;58;21066;-74
2022/04/05 09:11:12;;;;;;;7.22;1.75;;;9.60;59.90;;;;;;2354764;57;22078;-74
2022/04/05 09:13:40;;;;;;;11.68;1.83;;;9.60;60.70;;;;;;2594311;53;21686;-73
2022/04/05 09:16:08;;;;;;;5.87;1.37;;;9.60;62.20;;;;;;2362125;56;21059;-74
2022/04/05 09:18:39;;;;;;;2.03;1.02;;;9.60;63.20;;;;;;2627716;52;21047;-73
2022/04/05 09:21:09;;;;;;;2.67;0.98;;;9.50;64.00;;;;;;2374187;56;21046;-73
2022/04/05 09:23:38;;;;;;;4.35;1.15;;;9.60;64.60;;;;;;2372491;56;21458;-73
2022/04/05 09:26:08;;;;;;;3.45;0.90;;;9.60;64.80;;;;;;2373331;56;21047;-74
2022/04/05 09:31:24;;;;;;;1.62;0.90;;;9.70;64.70;;;;;;2355042;57;22070;-74
2022/04/05 09:34:06;;;;;;;3.30;1.00;;;9.70;64.40;;;;;;2346710;57;21128;-74
2022/04/05 09:36:36;;;;;;;5.93;1.35;;;9.70;62.40;;;;;;2367025;56;21100;-74
2022/04/05 09:39:18;;;;;;;3.60;1.10;;;9.70;62.60;;;;;;2373859;56;21031;-74
2022/04/05 09:41:45;;;;;;;3.47;1.12;;;9.60;62.80;;;;;;2374019;56;21618;-73
2022/04/05 09:44:13;;;;;;;6.95;1.40;;;9.60;64.00;;;;;;2374212;56;21054;-74
2022/04/05 09:46:42;;;;;;;5.97;1.00;;;9.70;63.50;;;;;;2373674;56;21047;-73
2022/04/05 09:49:13;;;;;;;3.30;1.35;;;9.70;62.70;;;;;;2374066;56;21106;-74
2022/04/05 09:51:43;;;;;;;2.78;1.02;;;9.70;62.20;;;;;;2374014;56;21153;-73
2022/04/05 09:54:27;;;;;;;6.85;1.90;;;9.70;61.70;;;;;;2373642;56;21114;-73
2022/04/05 09:57:00;;;;;;;8.13;1.90;;;9.80;60.80;;;;;;2373490;56;21129;-74
2022/04/05 09:59:40;;;;;;;6.30;1.30;;;9.70;60.30;;;;;;2374000;56;21189;-73
2022/04/05 10:02:13;;;;;;;3.67;1.12;;;9.80;60.10;;;;;;2372838;56;21129;-74
2022/04/05 10:05:00;;;;;;;8.43;1.85;;;9.80;59.60;;;;;;2373705;56;21042;-74
2022/04/05 10:07:29;;;;;;;8.10;1.35;;;9.80;60.20;;;;;;2626570;52;21631;-74
2022/04/05 10:09:59;;;;;;;4.43;1.30;;;9.80;59.80;;;;;;2373010;56;21083;-74
2022/04/05 10:12:27;;;;;;;5.95;1.45;;;9.80;60.10;;;;;;2373845;56;21063;-74
2022/04/05 10:14:55;;;;;;;5.45;2.00;;;9.90;60.30;;;;;;2373307;56;22121;-75
2022/04/05 10:17:26;;;;;;;6.35;1.17;;;10.00;61.10;;;;;;2368719;56;21703;-75
2022/04/05 10:19:56;;;;;;;4.65;1.40;;;10.10;60.90;;;;;;2372087;56;21125;-74
2022/04/05 10:22:25;;;;;;;9.50;2.87;;;10.10;60.50;;;;;;2371160;56;21130;-75
2022/04/05 10:24:53;;;;;;;7.43;1.70;;;10.20;60.40;;;;;;2373124;56;21035;-73
2022/04/05 10:27:21;;;;;;;6.10;1.40;;;10.30;61.00;;;;;;2372933;56;21055;-75
2022/04/05 10:29:56;;;;;;;5.37;1.30;;;10.30;61.40;;;;;;2373296;56;21117;-75
2022/04/05 10:32:32;;;;;;;4.30;1.65;;;10.30;60.90;;;;;;2373511;56;21090;-74
2022/04/05 10:35:04;;;;;;;8.15;1.50;;;10.30;60.60;;;;;;2373239;56;21071;-74
2022/04/05 10:37:34;;;;;;;9.75;3.17;;;10.40;60.60;;;;;;2373269;56;21063;-74
2022/04/05 10:40:20;;;;;;;3.37;1.42;;;10.40;61.30;;;;;;2371663;56;21066;-75
2022/04/05 10:42:49;;;;;;;5.65;1.42;;;10.50;61.70;;;;;;2372884;56;21114;-75
2022/04/05 10:45:18;;;;;;;4.15;1.45;;;10.50;61.80;;;;;;2372231;56;21059;-75
2022/04/05 10:48:11;;;;;;;3.95;1.60;;;10.50;61.80;;;;;;2372606;56;21062;-75
2022/04/05 10:50:39;;;;;;;10.55;2.20;;;10.40;62.10;;;;;;2372640;56;21059;-75
2022/04/05 10:53:17;;;;;;;4.55;1.40;;;10.40;63.00;;;;;;2372307;56;21055;-76
2022/04/05 10:56:14;;;;;;;4.93;1.37;;;10.40;63.80;;;;;;2371110;56;21039;-76
2022/04/05 10:59:10;;;;;;;4.20;1.50;;;10.40;63.60;;;;;;2372507;56;21050;-75
2022/04/05 11:01:43;;;;;;;6.47;1.37;;;10.40;63.80;;;;;;2372672;56;21186;-74
2022/04/05 11:04:33;;;;;;;10.68;1.55;;;10.40;64.50;;;;;;2373110;56;21055;-75
2022/04/05 11:07:13;;;;;;;5.62;1.50;;;10.30;64.60;;;;;;2372562;56;21054;-75
2022/04/05 11:09:48;;;;;;;4.70;1.50;;;10.30;65.00;;;;;;2372533;56;21095;-75
2022/04/05 11:12:20;;;;;;;3.58;1.20;;;10.30;65.20;;;;;;2370825;56;21620;-75
2022/04/05 11:14:50;;;;;;;5.28;1.35;;;10.40;65.60;;;;;;2372854;56;21123;-75
2022/04/05 11:17:19;;;;;;;4.20;1.45;;;10.40;65.60;;;;;;2372622;56;21035;-74
2022/04/05 11:19:50;;;;;;;8.73;1.30;;;10.50;65.40;;;;;;2372885;56;21063;-75
2022/04/05 11:22:32;;;;;;;4.37;1.62;;;10.50;64.80;;;;;;2372691;56;21110;-74
2022/04/05 11:25:03;;;;;;;11.63;1.70;;;10.50;63.40;;;;;;2372760;56;21054;-75
2022/04/05 11:30:55;;;;;;;4.80;1.05;;;10.50;63.10;;;;;;2602006;52;20964;-75
2022/04/05 11:33:35;;;;;;;7.47;1.33;;;10.50;62.70;;;;;;2372709;56;21047;-75
2022/04/05 11:36:07;;;;;;;7.55;1.65;;;10.50;63.00;;;;;;2372179;56;21122;-75
2022/04/05 11:38:38;;;;;;;4.85;1.20;;;10.50;63.10;;;;;;2372731;56;21070;-75
2022/04/05 11:41:08;;;;;;;5.00;1.40;;;10.40;62.30;;;;;;2372774;56;21110;-75
2022/04/05 11:43:40;;;;;;;8.25;1.65;;;10.40;62.80;;;;;;2372295;56;21723;-74
2022/04/05 11:46:10;;;;;;;5.45;2.05;;;10.40;63.60;;;;;;2370117;56;21613;-74
2022/04/05 11:48:45;;;;;;;6.72;1.77;;;10.50;64.00;;;;;;2372483;56;21058;-74
2022/04/05 11:51:14;;;;;;;5.95;1.60;;;10.50;63.90;;;;;;2625304;52;21035;-74
2022/04/05 11:53:43;;;;;;;5.18;1.30;;;10.50;63.20;;;;;;2372205;56;21115;-73
2022/04/05 11:56:17;;;;;;;6.45;1.50;;;10.50;63.70;;;;;;2371988;56;21054;-75
2022/04/05 11:58:46;;;;;;;3.08;1.58;;;10.50;64.00;;;;;;2372607;56;21122;-74
2022/04/05 12:01:16;;;;;;;4.95;1.40;;;10.60;63.40;;;;;;2372127;56;21445;-74
2022/04/05 12:03:45;;;;;;;4.80;1.40;;;10.60;63.60;;;;;;2624322;52;21039;-74
2022/04/05 12:06:13;;;;;;;3.50;1.37;;;10.60;63.50;;;;;;2371204;56;21114;-75
2022/04/05 12:12:07;;;;;;;4.57;1.52;;;10.60;63.70;;;;;;2602226;52;21509;-74
2022/04/05 12:14:35;;;;;;;2.67;1.33;;;10.80;63.60;;;;;;2372356;56;21102;-74
2022/04/05 12:17:05;;;;;;;6.18;1.55;;;10.70;62.70;;;;;;2373177;56;21616;-74
2022/04/05 12:19:37;;;;;;;5.95;1.70;;;10.60;63.20;;;;;;2626381;52;21065;-73
2022/04/05 12:22:06;;;;;;;4.32;1.70;;;10.50;63.80;;;;;;2372043;56;21118;-73
2022/04/05 12:24:35;;;;;;;10.05;1.35;;;10.40;64.10;;;;;;2372991;56;21035;-74
2022/04/05 12:27:04;;;;;;;6.85;1.95;;;10.40;64.30;;;;;;2373667;56;21055;-75
2022/04/05 12:29:37;;;;;;;5.55;1.27;;;10.40;64.10;;;;;;2373643;56;21090;-74
2022/04/05 12:32:06;;;;;;;4.10;1.48;;;10.30;64.30;;;;;;2373324;56;21035;-74
2022/04/05 12:34:35;;;;;;;6.00;1.50;;;10.30;64.80;;;;;;2372918;56;21200;-74
2022/04/05 12:39:43;;;;;;;3.50;1.10;;;10.20;66.50;;;;;;2354950;57;22341;-74
2022/04/05 12:42:12;;;;;;;5.18;1.27;;;10.20;66.60;;;;;;2594598;53;21093;-74
2022/04/05 12:51:31;;;;;;;5.75;1.25;;;10.30;66.30;;;;;;2536221;52;21034;-74
2022/04/05 12:53:58;;;;;;;7.80;1.80;;;10.70;65.80;;;;;;2385366;56;21070;-73
2022/04/05 12:56:30;;;;;;;1.90;1.05;;;10.90;65.40;;;;;;2364567;56;21103;-74
2022/04/05 12:59:05;;;;;;;4.35;1.20;;;10.90;65.30;;;;;;2357972;57;21089;-73
2022/04/05 13:01:32;;;;;;;3.03;1.15;;;10.80;64.90;;;;;;2607568;53;21044;-74
2022/04/05 13:04:03;;;;;;;3.08;1.23;;;10.80;65.20;;;;;;2357677;57;21147;-74
2022/04/05 13:06:32;;;;;;;9.27;1.80;;;10.80;65.10;;;;;;2357372;57;21044;-75
2022/04/05 13:09:08;;;;;;;2.75;1.05;;;10.70;66.00;;;;;;2605859;53;21100;-73
2022/04/05 13:11:37;;;;;;;9.18;1.75;;;10.60;66.60;;;;;;2608139;53;21076;-74
2022/04/05 13:14:12;;;;;;;4.78;1.58;;;10.60;67.00;;;;;;2357974;57;21143;-74
2022/04/05 13:16:40;;;;;;;5.60;1.30;;;10.60;66.80;;;;;;2357929;57;21618;-74
2022/04/05 13:19:10;;;;;;;8.52;1.30;;;10.70;66.40;;;;;;2358187;57;21131;-74
2022/04/05 13:21:45;;;;;;;8.02;1.30;;;10.70;66.10;;;;;;2357730;57;21036;-74
2022/04/05 13:24:13;;;;;;;1.27;1.17;;;10.60;65.50;;;;;;2357953;57;21091;-73
2022/04/05 13:26:44;;;;;;;3.55;1.42;;;10.50;65.90;;;;;;2356476;57;21075;-76
2022/04/05 13:29:14;;;;;;;5.78;1.87;;;10.50;66.30;;;;;;2358072;57;21088;-76